Terminal Aerodrome Forecast
Issued by NWS

Home | Current Version | Previous Version | Text Only | Print | Product List | Glossary On
Versions: 1 2 3 4 5 6 7 8 9 10 11 12 13 14
661
FTUS43 KGRR 211631 AAA
TAFLAN
TAF AMD
KLAN 211631Z 2117/2212 24008KT P6SM -RA OVC035
     FM211730 25008KT 4SM -RA BR OVC025
     FM211830 25007KT P6SM OVC015
     FM212200 24007KT P6SM SCT015 SCT250
     FM220600 22006KT 3SM BR OVC008=

USA.gov is the U.S. government's official web portal to all federal, state and local government web resources and services.